createdAt,value
2019-05-02T00:27:47.038Z,55.50
2019-05-02T00:30:15.371Z,56.00
2019-05-02T00:32:43.345Z,56.10
2019-05-02T00:35:14.206Z,56.30
2019-05-02T00:37:41.832Z,56.40
2019-05-02T00:40:09.607Z,56.50
2019-05-02T00:42:37.289Z,56.50
2019-05-02T00:45:05.848Z,57.00
2019-05-02T00:47:52.894Z,57.00
2019-05-02T00:50:21.728Z,57.50
2019-05-02T00:52:49.804Z,57.70
2019-05-02T00:55:17.550Z,58.50
2019-05-02T00:57:45.269Z,58.50
2019-05-02T01:00:18.196Z,58.60
2019-05-02T01:02:48.782Z,59.00
2019-05-02T01:05:16.431Z,59.40
2019-05-02T01:07:44.044Z,59.20
2019-05-02T01:10:11.860Z,59.90
2019-05-02T01:12:40.045Z,59.90
2019-05-02T01:15:09.711Z,62.80
2019-05-02T01:17:37.433Z,61.90
2019-05-02T01:20:05.990Z,62.80
2019-05-02T01:22:33.669Z,60.10
2019-05-02T01:25:01.327Z,60.30
2019-05-02T01:27:41.087Z,61.90
2019-05-02T01:30:37.276Z,61.90
2019-05-02T01:33:31.579Z,60.30
2019-05-02T01:36:06.443Z,60.90
2019-05-02T01:38:40.828Z,62.40
2019-05-02T01:41:08.462Z,61.40
2019-05-02T01:43:36.115Z,64.10
2019-05-02T01:46:03.905Z,64.90
2019-05-02T01:48:31.529Z,64.30
2019-05-02T01:50:59.364Z,66.90
2019-05-02T01:53:29.381Z,67.30
2019-05-02T01:55:57.567Z,64.30
2019-05-02T01:58:26.030Z,66.00
2019-05-02T02:00:53.872Z,65.30
2019-05-02T02:03:21.725Z,66.50
2019-05-02T02:05:49.488Z,67.80
2019-05-02T02:08:17.305Z,69.00
2019-05-02T02:10:44.971Z,68.50
2019-05-02T02:13:12.726Z,69.40
2019-05-02T02:15:40.559Z,69.20
2019-05-02T02:18:08.240Z,69.40
2019-05-02T02:20:45.165Z,69.40
2019-05-02T02:23:44.954Z,70.30
2019-05-02T02:26:13.715Z,69.20
2019-05-02T02:28:41.504Z,69.20
2019-05-02T02:31:09.308Z,71.80
2019-05-02T02:33:40.995Z,73.00
2019-05-02T02:36:06.471Z,73.10
2019-05-02T02:38:35.409Z,75.00
2019-05-02T02:41:06.480Z,75.30
2019-05-02T02:43:34.850Z,75.80
2019-05-02T02:46:18.657Z,75.70
2019-05-02T02:48:46.343Z,77.60
2019-05-02T02:51:22.121Z,77.80
2019-05-02T02:53:43.594Z,78.80
2019-05-02T02:56:11.419Z,80.20
2019-05-02T02:58:45.721Z,80.20
2019-05-02T03:01:08.718Z,81.00
2019-05-02T03:03:36.440Z,80.30
2019-05-02T03:06:05.872Z,83.00
2019-05-02T03:08:45.142Z,81.30
2019-05-02T03:11:03.670Z,81.70
2019-05-02T03:13:53.673Z,80.90
2019-05-02T03:16:21.465Z,79.90
2019-05-02T03:18:49.056Z,79.60
2019-05-02T03:21:20.153Z,78.80
2019-05-02T03:23:46.327Z,79.60
2019-05-02T03:26:15.422Z,80.20
2019-05-02T03:28:43.342Z,79.70
2019-05-02T03:31:22.940Z,80.20
2019-05-02T03:33:54.690Z,80.70
2019-05-02T03:36:25.938Z,80.80
2019-05-02T03:38:41.133Z,79.00
2019-05-02T03:41:13.517Z,79.40
2019-05-02T03:43:38.380Z,82.60
2019-05-02T03:46:06.126Z,82.70
2019-05-02T03:48:34.024Z,82.50
2019-05-02T03:51:05.054Z,82.90
2019-05-02T03:53:32.049Z,82.60
2019-05-02T03:56:10.681Z,84.60
2019-05-02T03:58:30.473Z,84.00
2019-05-02T04:01:01.531Z,85.10
2019-05-02T04:03:33.932Z,84.40
2019-05-02T04:05:57.702Z,86.00
2019-05-02T04:08:25.549Z,83.80
2019-05-02T04:11:20.250Z,83.40
2019-05-02T04:13:50.242Z,82.10
2019-05-02T04:16:18.167Z,82.20
2019-05-02T04:18:54.405Z,82.60
2019-05-02T04:21:22.135Z,85.70
2019-05-02T04:23:47.206Z,86.00
2019-05-02T04:26:15.783Z,83.90
2019-05-02T04:28:45.620Z,85.10
2019-05-02T04:31:13.416Z,82.90
2019-05-02T04:33:41.249Z,83.30
2019-05-02T04:36:15.846Z,83.10
2019-05-02T04:38:44.402Z,82.40
2019-05-02T04:41:09.297Z,83.10
2019-05-02T04:43:40.632Z,83.40
2019-05-02T04:46:09.329Z,82.60
2019-05-02T04:48:43.798Z,82.30
2019-05-02T04:51:10.423Z,80.90
2019-05-02T04:53:41.038Z,83.60
2019-05-02T04:56:07.735Z,81.40
2019-05-02T04:58:37.041Z,82.10
2019-05-02T05:01:03.589Z,80.80
2019-05-02T05:03:31.148Z,77.90
2019-05-02T05:06:06.810Z,76.80
2019-05-02T05:08:31.946Z,76.10
2019-05-02T05:10:57.894Z,73.50
2019-05-02T05:13:26.474Z,74.50
2019-05-02T05:15:54.344Z,74.90
2019-05-02T05:18:22.647Z,72.10
2019-05-02T05:20:52.972Z,70.50
2019-05-02T05:23:42.222Z,70.90
2019-05-02T05:26:09.893Z,67.70
2019-05-02T05:28:40.565Z,67.60
2019-05-02T05:31:07.794Z,67.20
2019-05-02T05:33:37.627Z,68.40
2019-05-02T05:36:04.940Z,65.90
2019-05-02T05:38:34.425Z,64.50
2019-05-02T05:41:03.045Z,66.30
2019-05-02T05:43:31.447Z,65.10
2019-05-02T05:46:09.092Z,62.70
2019-05-02T05:48:32.014Z,64.40
2019-05-02T05:50:58.598Z,61.80
2019-05-02T05:53:28.089Z,63.50
2019-05-02T05:55:58.978Z,61.50
2019-05-02T05:58:25.293Z,60.80
2019-05-02T06:00:55.692Z,59.90
2019-05-02T06:03:23.682Z,59.40
2019-05-02T06:05:51.682Z,58.70
2019-05-02T06:08:19.963Z,60.20
2019-05-02T06:10:47.895Z,58.40
2019-05-02T06:13:15.512Z,58.40
2019-05-02T06:15:45.833Z,58.60
2019-05-02T06:18:12.490Z,58.20
2019-05-02T06:20:40.189Z,57.00
2019-05-02T06:23:08.076Z,56.70
2019-05-02T06:25:36.993Z,56.80
2019-05-02T06:28:06.609Z,56.20
2019-05-02T06:30:34.484Z,55.50
2019-05-02T06:59:31.966Z,49.30
2019-05-02T07:02:18.299Z,48.10
2019-05-02T07:04:45.967Z,48.80
2019-05-02T07:07:13.797Z,48.30
2019-05-02T07:09:41.893Z,47.50
2019-05-02T07:12:14.251Z,46.80
2019-05-02T07:14:39.165Z,47.40
2019-05-02T07:17:26.799Z,47.10
2019-05-02T07:19:58.888Z,47.10
2019-05-02T07:22:26.449Z,45.90
2019-05-02T07:24:53.992Z,45.70
2019-05-02T07:27:28.389Z,44.80
2019-05-02T07:33:45.667Z,42.40
2019-05-02T07:38:45.124Z,42.60
2019-05-02T07:41:12.726Z,43.20
2019-05-02T07:43:40.287Z,42.90
2019-05-02T07:46:07.895Z,39.90
2019-05-02T07:48:35.566Z,40.60
2019-05-02T07:51:03.846Z,41.10
2019-05-02T07:53:32.752Z,40.60
2019-05-02T07:56:00.779Z,41.10
2019-05-02T07:58:28.796Z,41.00
2019-05-02T08:00:56.429Z,40.00
2019-05-02T08:03:24.004Z,39.10
2019-05-02T08:05:54.439Z,38.80
2019-05-02T08:08:24.961Z,38.40
2019-05-02T08:11:01.352Z,37.60
2019-05-02T08:13:23.316Z,38.30
2019-05-02T08:15:52.329Z,38.80
2019-05-02T08:18:19.965Z,38.80
2019-05-02T08:20:51.104Z,39.00
2019-05-02T08:23:20.608Z,35.70
2019-05-02T08:25:46.583Z,35.80
2019-05-02T08:28:22.127Z,33.10
2019-05-02T08:30:53.555Z,33.40
2019-05-02T08:33:21.201Z,33.10
2019-05-02T08:35:48.764Z,31.40
2019-05-02T08:38:17.871Z,35.90
2019-05-02T08:40:48.002Z,37.00
2019-05-02T08:43:15.268Z,37.00
2019-05-02T08:45:42.838Z,35.50
2019-05-02T08:48:10.412Z,35.50
2019-05-02T08:50:38.944Z,35.30
2019-05-02T08:53:06.505Z,33.50
2019-05-02T08:55:34.101Z,33.20
2019-05-02T08:58:06.053Z,34.80
2019-05-02T09:00:32.136Z,34.50
2019-05-02T09:03:02.529Z,34.30
2019-05-02T09:05:29.866Z,34.80
2019-05-02T09:07:57.422Z,35.00
2019-05-02T09:10:25.002Z,35.20
2019-05-02T09:12:52.575Z,37.70
2019-05-02T09:15:22.199Z,39.00
2019-05-02T09:17:52.800Z,38.40
2019-05-02T09:20:20.956Z,37.50
2019-05-02T09:22:52.101Z,36.20
2019-05-02T09:25:17.909Z,36.80
2019-05-02T09:27:45.574Z,36.60
2019-05-02T09:30:17.252Z,36.10
2019-05-02T09:32:43.417Z,36.10
2019-05-02T09:35:11.830Z,36.00
2019-05-02T09:37:39.401Z,35.00
2019-05-02T09:40:11.632Z,34.60
2019-05-02T09:42:36.402Z,35.40
2019-05-02T09:45:04.817Z,35.20
2019-05-02T09:47:41.545Z,35.10
2019-05-02T09:50:14.228Z,35.30
2019-05-02T09:52:44.173Z,35.10
2019-05-02T09:55:12.881Z,34.70
2019-05-02T09:57:44.312Z,35.00
2019-05-02T10:00:32.159Z,34.20
2019-05-02T10:03:00.253Z,34.10
2019-05-02T10:05:35.144Z,32.70
2019-05-02T10:08:06.896Z,34.40
2019-05-02T10:10:37.237Z,33.50
2019-05-02T10:13:04.682Z,33.70
2019-05-02T10:15:32.844Z,32.50
2019-05-02T10:18:08.830Z,33.20
2019-05-02T10:20:31.811Z,32.60
2019-05-02T10:22:59.282Z,33.30
2019-05-02T10:25:32.753Z,33.10
2019-05-02T10:27:56.175Z,32.50
2019-05-02T10:30:25.630Z,32.40
2019-05-02T10:32:57.267Z,31.20
2019-05-02T10:35:28.164Z,31.00
2019-05-02T10:37:54.782Z,31.40
2019-05-02T10:40:22.583Z,29.90
2019-05-02T10:42:52.078Z,29.70
2019-05-02T10:45:19.793Z,29.20
2019-05-02T10:47:47.300Z,28.80
2019-05-02T10:50:22.265Z,27.70
2019-05-02T10:52:49.788Z,26.60
2019-05-02T10:55:17.547Z,27.70
2019-05-02T10:57:45.140Z,27.80
2019-05-02T11:00:15.066Z,29.00
2019-05-02T11:03:02.553Z,27.40
2019-05-02T11:05:31.561Z,27.80
2019-05-02T11:08:04.822Z,29.00
2019-05-02T11:10:28.687Z,29.10
2019-05-02T11:13:05.309Z,28.20
2019-05-02T11:15:52.377Z,28.40
2019-05-02T11:18:39.183Z,29.10
2019-05-02T11:20:52.893Z,28.20
2019-05-02T11:23:22.099Z,28.40
2019-05-02T11:25:49.784Z,29.20
2019-05-02T11:28:18.759Z,30.20
2019-05-02T11:30:46.299Z,29.20
2019-05-02T11:33:14.018Z,29.10
2019-05-02T11:35:48.793Z,29.00
2019-05-02T11:38:13.479Z,28.80
2019-05-02T11:40:42.154Z,28.50
2019-05-02T11:43:11.589Z,29.10
2019-05-02T11:45:39.274Z,28.70
2019-05-02T11:48:11.924Z,28.40
2019-05-02T11:50:39.359Z,29.10
2019-05-02T11:53:09.231Z,28.50
2019-05-02T11:55:36.460Z,27.90
2019-05-02T11:58:08.280Z,28.90
2019-05-02T12:00:33.599Z,29.30
2019-05-02T12:03:18.836Z,27.90
2019-05-02T12:05:46.490Z,28.40
2019-05-02T12:08:14.040Z,28.80
2019-05-02T12:10:42.257Z,28.30
2019-05-02T12:13:16.001Z,26.90
2019-05-02T12:15:44.275Z,26.50
2019-05-02T12:18:12.130Z,26.80
2019-05-02T12:20:39.695Z,27.10
2019-05-02T12:23:09.135Z,26.70
2019-05-02T12:25:36.671Z,27.40
2019-05-02T12:28:04.484Z,27.40
2019-05-02T12:30:34.170Z,27.60
2019-05-02T12:33:02.553Z,27.80
2019-05-02T12:35:32.211Z,28.90
2019-05-02T12:38:00.096Z,28.30
2019-05-02T12:40:28.030Z,29.40
2019-05-02T12:42:55.776Z,29.10
2019-05-02T12:45:23.692Z,29.40
2019-05-02T12:47:52.323Z,29.00
2019-05-02T12:50:20.188Z,30.00
2019-05-02T12:52:48.167Z,28.80
2019-05-02T12:55:22.066Z,28.80
2019-05-02T12:57:52.826Z,28.80
2019-05-02T13:00:22.326Z,27.50
2019-05-02T13:35:42.081Z,26.50
2019-05-02T13:38:09.817Z,26.20
2019-05-02T13:40:44.761Z,25.60
2019-05-02T13:43:12.785Z,26.20
2019-05-02T13:46:06.579Z,26.40
2019-05-02T13:48:34.431Z,25.00
2019-05-02T13:51:03.928Z,25.40
2019-05-02T13:53:32.258Z,24.80
2019-05-02T13:56:17.946Z,24.00
2019-05-02T13:58:54.490Z,23.80
2019-05-02T14:01:22.595Z,24.00
2019-05-02T14:03:53.551Z,23.30
2019-05-02T14:06:22.028Z,23.10
2019-05-02T14:09:07.888Z,24.00
2019-05-02T14:11:45.983Z,23.60
2019-05-02T14:14:14.430Z,24.20
2019-05-02T14:16:42.072Z,23.30
2019-05-02T14:19:09.720Z,23.10
2019-05-02T14:21:37.498Z,22.70
2019-05-02T14:24:05.200Z,23.10
2019-05-02T14:26:33.276Z,21.90
2019-05-02T14:29:02.564Z,21.70
2019-05-02T14:31:32.223Z,21.40
2019-05-02T14:34:17.536Z,20.60
2019-05-02T14:36:45.312Z,20.30
2019-05-02T14:39:12.987Z,18.90
2019-05-02T14:41:44.421Z,19.50
2019-05-02T14:44:11.894Z,19.30
2019-05-02T14:46:39.963Z,20.00
2019-05-02T14:49:07.796Z,21.30
2019-05-02T14:51:36.757Z,21.00
2019-05-02T14:54:08.252Z,20.30
2019-05-02T14:57:01.990Z,20.70
2019-05-02T14:59:29.794Z,21.50
2019-05-02T15:02:05.727Z,22.40
2019-05-02T15:04:29.206Z,22.60
2019-05-02T15:06:56.863Z,22.50
2019-05-02T15:09:26.732Z,23.20
2019-05-02T15:12:02.683Z,22.20
2019-05-02T15:14:32.895Z,21.90
2019-05-02T15:17:02.559Z,23.00
2019-05-02T15:19:32.688Z,23.10
2019-05-02T15:22:01.963Z,21.80
2019-05-02T15:24:33.198Z,23.20
2019-05-02T15:27:03.647Z,22.50
2019-05-02T15:29:28.820Z,23.10
2019-05-02T15:32:13.421Z,22.90
2019-05-02T15:34:58.884Z,21.00
2019-05-02T15:37:27.279Z,22.50
2019-05-02T15:42:25.784Z,22.40
2019-05-02T15:44:57.118Z,22.00
2019-05-02T15:47:23.008Z,22.10
2019-05-02T15:49:52.660Z,21.80
2019-05-02T15:52:27.757Z,20.60
2019-05-02T15:54:59.939Z,19.90
2019-05-02T15:57:24.869Z,21.60
2019-05-02T15:59:52.868Z,21.50
2019-05-02T16:02:22.902Z,22.10
2019-05-02T16:04:52.234Z,22.70
2019-05-02T16:07:20.079Z,23.30
2019-05-02T16:09:51.588Z,23.80
2019-05-02T16:12:17.191Z,26.10
2019-05-02T16:14:44.871Z,27.40
2019-05-02T16:17:17.589Z,28.00
2019-05-02T16:19:47.359Z,28.70
2019-05-02T16:22:16.599Z,30.10
2019-05-02T16:24:48.814Z,31.20
2019-05-02T16:27:16.544Z,32.10
2019-05-02T16:29:43.412Z,33.50
2019-05-02T16:32:35.148Z,33.00
2019-05-02T16:35:07.597Z,33.60
2019-05-02T16:37:32.560Z,34.40
2019-05-02T16:40:02.526Z,34.20
2019-05-02T16:42:30.438Z,35.10
2019-05-02T16:44:58.541Z,35.00
2019-05-02T16:47:28.154Z,35.20
2019-05-02T16:49:56.552Z,35.50
2019-05-02T16:52:24.359Z,34.20
2019-05-02T16:54:52.644Z,33.90
2019-05-02T16:57:22.228Z,32.70
2019-05-02T16:59:53.973Z,32.30
2019-05-02T17:02:21.712Z,32.30
2019-05-02T17:04:49.208Z,33.20
2019-05-02T17:07:26.221Z,33.20
2019-05-02T17:10:08.297Z,33.80
2019-05-02T18:58:06.313Z,46.50
2019-05-02T19:00:38.198Z,47.60
2019-05-02T19:03:07.463Z,49.70
2019-05-02T19:05:34.521Z,50.00
2019-05-02T19:08:02.622Z,50.30
2019-05-02T19:10:32.224Z,50.30
2019-05-02T19:13:05.934Z,50.50
2019-05-02T19:39:57.201Z,55.00
2019-05-02T19:42:26.223Z,55.60
2019-05-02T21:01:53.121Z,55.40
2019-05-02T21:04:22.691Z,56.20
2019-05-02T21:06:56.978Z,56.30
2019-05-02T21:09:52.466Z,57.00
2019-05-02T21:12:22.905Z,57.50
2019-05-02T21:14:52.323Z,58.10
2019-05-02T21:17:22.108Z,55.10
2019-05-02T21:19:55.062Z,55.50
2019-05-02T21:22:29.562Z,57.90
2019-05-02T21:25:02.451Z,58.50
2019-05-02T21:27:35.490Z,55.70
2019-05-02T21:30:07.428Z,56.30
2019-05-02T21:35:52.240Z,57.30
2019-05-02T21:38:29.099Z,56.00
2019-05-02T21:41:11.597Z,54.10
2019-05-02T21:44:18.583Z,53.80
2019-05-02T21:46:52.858Z,54.10
2019-05-02T22:03:24.142Z,53.60
2019-05-02T22:05:52.560Z,51.60
2019-05-02T22:08:21.669Z,55.50
2019-05-02T22:10:52.011Z,54.80
2019-05-02T22:13:22.235Z,54.70
2019-05-02T22:16:12.763Z,54.40
2019-05-02T22:18:52.252Z,51.40
2019-05-02T22:21:22.769Z,50.40
2019-05-02T22:23:52.066Z,47.00
2019-05-02T22:26:22.089Z,46.70
2019-05-02T22:29:27.604Z,45.30
2019-05-02T22:31:55.270Z,43.90
2019-05-02T22:34:22.882Z,43.80
2019-05-02T22:36:53.979Z,43.60
2019-05-02T22:39:39.427Z,43.20
2019-05-02T22:42:07.103Z,43.20
2019-05-02T22:44:34.684Z,43.00
2019-05-02T22:47:02.391Z,43.20
2019-05-02T22:49:31.664Z,43.20
2019-05-02T22:51:59.445Z,43.00
2019-05-02T22:54:30.674Z,43.10
2019-05-02T22:56:56.566Z,43.20
2019-05-02T22:59:24.172Z,43.50
2019-05-02T23:01:52.793Z,43.40
2019-05-02T23:04:23.245Z,43.40
2019-05-02T23:06:50.436Z,43.40
2019-05-02T23:09:17.951Z,43.20
2019-05-02T23:11:45.482Z,43.00
2019-05-02T23:14:13.062Z,43.10
2019-05-02T23:16:42.706Z,43.30
2019-05-02T23:19:12.026Z,43.10
2019-05-02T23:21:39.522Z,43.30
2019-05-02T23:24:14.633Z,43.00
2019-05-02T23:27:00.063Z,42.90
2019-05-02T23:29:27.634Z,42.80
2019-05-02T23:31:55.203Z,42.40
2019-05-02T23:34:23.633Z,42.40
2019-05-02T23:36:52.160Z,42.50
2019-05-02T23:39:20.192Z,42.50
2019-05-02T23:41:47.769Z,42.60
2019-05-02T23:44:15.379Z,42.80
2019-05-02T23:46:43.000Z,43.10
2019-05-02T23:49:12.539Z,43.30
2019-05-02T23:51:40.068Z,43.90
2019-05-02T23:54:07.705Z,43.30
2019-05-02T23:56:35.353Z,43.10
2019-05-02T23:59:03.088Z,42.70
